Terminal Aerodrome Forecast
Issued by NWS Charleston, WV

Current Version | Previous Version | Text Only | Print | Product List | Glossary Off
Versions: 1 2 3 4 5 6 7 8 9 10 11 12 13 14 15 16 17 18 19 20 21 22

862
FTUS41 KRLX 051120
TAFEKN
TAF
KEKN 051120Z 0512/0612 29009KT P6SM OVC035
     FM051500 30009G18KT P6SM SCT035
     FM051800 29005KT P6SM BKN022=

USA.gov is the U.S. government's official web portal to all federal, state and local government web resources and services.